createdAt,value
2022-10-06T00:00:39.831Z,5.07
2022-10-06T00:05:36.548Z,4.75
2022-10-06T00:10:30.228Z,5.00
2022-10-06T00:15:26.723Z,4.82
2022-10-06T00:20:21.985Z,4.30
2022-10-06T00:25:18.492Z,3.83
2022-10-06T00:30:14.710Z,4.28
2022-10-06T00:35:08.124Z,4.55
2022-10-06T00:40:02.149Z,4.00
2022-10-06T00:44:56.156Z,4.60
2022-10-06T00:49:49.815Z,4.80
2022-10-06T00:54:43.064Z,4.60
2022-10-06T00:59:38.145Z,4.20
2022-10-06T01:04:37.304Z,4.80
2022-10-06T01:09:30.958Z,4.57
2022-10-06T01:14:25.254Z,4.32
2022-10-06T01:19:32.730Z,4.50
2022-10-06T01:24:26.296Z,4.43
2022-10-06T01:29:20.040Z,4.30
2022-10-06T01:34:13.924Z,4.00
2022-10-06T01:39:06.906Z,4.35
2022-10-06T01:44:04.120Z,5.32
2022-10-06T01:48:57.789Z,4.45
2022-10-06T01:53:54.890Z,4.68
2022-10-06T01:58:48.556Z,4.07
2022-10-06T02:03:42.459Z,4.90
2022-10-06T02:08:36.117Z,5.25
2022-10-06T02:13:32.026Z,5.53
2022-10-06T02:18:27.713Z,4.50
2022-10-06T02:23:21.176Z,4.88
2022-10-06T02:28:17.349Z,4.72
2022-10-06T02:33:11.065Z,4.70
2022-10-06T02:38:04.542Z,4.95
2022-10-06T02:42:58.275Z,4.55
2022-10-06T02:47:52.564Z,4.70
2022-10-06T02:52:46.432Z,4.35
2022-10-06T02:57:39.943Z,4.68
2022-10-06T03:02:33.153Z,4.75
2022-10-06T03:07:26.004Z,4.53
2022-10-06T03:12:18.867Z,4.35
2022-10-06T03:17:12.292Z,4.80
2022-10-06T03:22:16.403Z,4.50
2022-10-06T03:27:18.359Z,4.80
2022-10-06T03:32:12.150Z,4.90
2022-10-06T03:37:05.366Z,4.60
2022-10-06T03:41:59.301Z,4.82
2022-10-06T03:46:52.331Z,4.60
2022-10-06T03:51:45.529Z,4.20
2022-10-06T03:56:46.779Z,4.63
2022-10-06T04:01:43.338Z,5.10
2022-10-06T04:06:41.047Z,5.22
2022-10-06T04:11:38.745Z,4.45
2022-10-06T04:16:35.210Z,4.93
2022-10-06T04:21:31.579Z,4.68
2022-10-06T04:26:27.916Z,5.43
2022-10-06T04:31:24.104Z,4.90
2022-10-06T04:36:24.845Z,5.63
2022-10-06T04:41:21.111Z,5.32
2022-10-06T04:46:41.490Z,5.55
2022-10-06T04:51:30.924Z,5.47
2022-10-06T04:56:31.930Z,5.95
2022-10-06T05:01:33.976Z,6.13
2022-10-06T05:06:34.661Z,5.90
2022-10-06T05:11:28.615Z,6.38
2022-10-06T05:16:24.903Z,5.03
2022-10-06T05:21:24.723Z,8.48
2022-10-06T12:59:38.677Z,13.67
2022-10-06T13:04:37.526Z,12.57
2022-10-06T13:09:37.620Z,12.88
2022-10-06T13:15:09.210Z,12.65
2022-10-06T13:20:02.568Z,14.55
2022-10-06T13:25:09.140Z,13.38
2022-10-06T13:30:38.521Z,14.25
2022-10-06T13:35:33.119Z,12.77
2022-10-06T13:40:44.247Z,12.73
2022-10-06T13:46:02.009Z,12.75
2022-10-06T13:51:17.240Z,12.60
2022-10-06T13:56:42.980Z,12.50
2022-10-06T14:01:36.645Z,12.63
2022-10-06T14:06:30.837Z,11.52
2022-10-06T14:11:27.027Z,11.15
2022-10-06T14:16:26.133Z,10.02
2022-10-06T14:21:36.912Z,10.52
2022-10-06T14:26:33.383Z,10.63
2022-10-06T14:31:29.373Z,9.23
2022-10-06T14:36:29.913Z,8.60
2022-10-06T14:41:31.111Z,8.93
2022-10-06T14:46:25.978Z,9.00
2022-10-06T14:51:20.276Z,8.02
2022-10-06T14:56:15.093Z,8.23
2022-10-06T15:01:10.139Z,7.55
2022-10-06T15:06:27.097Z,7.30
2022-10-06T15:11:21.296Z,7.28
2022-10-06T15:16:19.698Z,6.40
2022-10-06T15:21:14.013Z,6.95
2022-10-06T15:26:26.484Z,6.05
2022-10-06T15:31:24.459Z,5.72
2022-10-06T15:36:23.192Z,5.80
2022-10-06T15:41:16.630Z,5.65
2022-10-06T15:46:13.150Z,5.68
2022-10-06T15:51:06.806Z,5.72
2022-10-06T15:56:04.143Z,4.65
2022-10-06T16:00:58.010Z,5.00
2022-10-06T16:06:00.475Z,5.78
2022-10-06T16:10:53.906Z,4.82
2022-10-06T16:15:53.836Z,4.68
2022-10-06T16:20:52.242Z,4.53
2022-10-06T16:25:46.009Z,4.97
2022-10-06T16:30:40.216Z,4.50
2022-10-06T16:35:34.103Z,4.38
2022-10-06T16:40:27.520Z,4.43
2022-10-06T16:45:21.299Z,4.18
2022-10-06T16:50:15.437Z,4.47
2022-10-06T16:55:10.231Z,3.88
2022-10-06T17:00:07.316Z,4.55
2022-10-06T17:05:01.592Z,4.18
2022-10-06T17:10:18.424Z,4.13
2022-10-06T17:15:10.404Z,3.58
2022-10-06T17:20:04.568Z,3.90
2022-10-06T17:25:01.304Z,4.20
2022-10-06T17:29:54.021Z,4.93
2022-10-06T17:34:48.737Z,4.93
2022-10-06T17:39:46.885Z,7.97
2022-10-06T17:44:40.973Z,12.02
2022-10-06T17:49:35.704Z,10.88
2022-10-06T17:54:29.365Z,11.05
2022-10-06T17:59:29.212Z,11.27
2022-10-06T18:04:23.127Z,11.20
2022-10-06T18:09:16.623Z,10.50
2022-10-06T18:14:12.090Z,10.95
2022-10-06T18:19:08.410Z,9.88
2022-10-06T18:24:01.788Z,9.30
2022-10-06T18:28:55.171Z,9.00
2022-10-06T18:39:02.072Z,8.80
2022-10-06T18:43:56.948Z,9.90
2022-10-06T18:48:55.437Z,9.32
2022-10-06T18:53:49.206Z,9.00
2022-10-06T18:58:42.969Z,8.95
2022-10-06T19:03:36.203Z,9.77
2022-10-06T19:08:29.497Z,9.32
2022-10-06T19:13:25.012Z,9.40
2022-10-06T19:18:18.414Z,10.98
2022-10-06T19:23:12.826Z,10.23
2022-10-06T19:28:06.672Z,9.90
2022-10-06T19:33:00.405Z,10.00
2022-10-06T19:37:54.616Z,9.45
2022-10-06T19:42:48.280Z,10.10
2022-10-06T19:47:42.263Z,10.35
2022-10-06T19:52:37.661Z,10.10
2022-10-06T19:57:32.479Z,9.05
2022-10-06T20:02:31.945Z,9.68
2022-10-06T20:07:28.126Z,10.10
2022-10-06T20:12:25.913Z,231.43
2022-10-06T20:17:19.604Z,207.15
2022-10-06T20:22:13.395Z,197.85
2022-10-06T20:27:12.152Z,399.75
2022-10-06T20:32:06.106Z,545.50
2022-10-06T20:37:02.735Z,529.35
2022-10-06T20:41:57.114Z,499.33
2022-10-06T20:46:52.211Z,482.55
2022-10-06T20:51:51.413Z,459.70
2022-10-06T20:56:44.280Z,447.67
2022-10-06T21:01:40.754Z,428.63
2022-10-06T21:06:34.461Z,427.58
2022-10-06T21:11:29.841Z,347.88
2022-10-06T21:16:34.698Z,368.77
2022-10-06T21:21:29.511Z,328.70
2022-10-06T21:26:26.859Z,298.38
2022-10-06T21:31:25.778Z,272.88
2022-10-06T21:36:30.853Z,269.88
2022-10-06T21:41:29.365Z,262.48
2022-10-06T21:46:28.921Z,252.65
2022-10-06T21:51:26.273Z,244.30
2022-10-06T21:56:23.622Z,236.75
2022-10-06T22:01:18.451Z,234.98
2022-10-06T22:06:18.246Z,228.52
2022-10-06T22:11:15.433Z,225.25
2022-10-06T22:16:11.353Z,218.65
2022-10-06T22:21:24.395Z,213.23
2022-10-06T22:26:18.918Z,209.13
2022-10-06T22:31:14.016Z,208.85
2022-10-06T22:36:09.765Z,198.88
2022-10-06T22:41:10.376Z,196.75
2022-10-06T22:46:06.103Z,188.88
2022-10-06T22:51:00.077Z,185.35
2022-10-06T22:55:56.721Z,183.25
2022-10-06T23:00:50.390Z,177.80
2022-10-06T23:05:44.810Z,172.73
2022-10-06T23:10:39.338Z,171.65
2022-10-06T23:15:35.121Z,161.70
2022-10-06T23:20:30.469Z,158.90
2022-10-06T23:25:27.363Z,161.45
2022-10-06T23:30:21.958Z,150.93
2022-10-06T23:35:16.886Z,152.65
2022-10-06T23:40:12.293Z,146.23
2022-10-06T23:45:09.716Z,138.65
2022-10-06T23:50:02.957Z,134.18
2022-10-06T23:54:57.609Z,129.13
2022-10-06T23:59:51.662Z,124.15
